createdAt,value
2017-09-30T00:00:43.458Z,28.40
2017-09-30T00:03:11.701Z,19.80
2017-09-30T00:05:39.177Z,17.07
2017-09-30T00:08:06.902Z,20.03
2017-09-30T00:10:34.381Z,22.83
2017-09-30T00:13:02.941Z,16.63
2017-09-30T00:15:30.441Z,17.40
2017-09-30T00:17:57.918Z,16.20
2017-09-30T00:20:26.157Z,17.47
2017-09-30T00:22:53.656Z,20.70
2017-09-30T00:25:21.898Z,17.10
2017-09-30T00:27:49.374Z,15.53
2017-09-30T00:30:17.642Z,19.17
2017-09-30T00:32:45.117Z,20.77
2017-09-30T00:35:13.364Z,15.67
2017-09-30T00:37:40.865Z,25.90
2017-09-30T00:40:08.787Z,20.40
2017-09-30T00:42:36.496Z,25.27
2017-09-30T00:45:03.993Z,15.13
2017-09-30T00:47:31.469Z,20.60
2017-09-30T00:49:58.944Z,17.10
2017-09-30T00:52:27.209Z,27.97
2017-09-30T00:54:54.693Z,26.37
2017-09-30T00:57:22.191Z,17.07
2017-09-30T00:59:49.686Z,20.53
2017-09-30T01:02:17.945Z,15.57
2017-09-30T01:04:45.437Z,15.93
2017-09-30T01:07:13.001Z,17.53
2017-09-30T01:09:40.481Z,19.43
2017-09-30T01:12:08.245Z,20.07
2017-09-30T01:14:35.737Z,21.20
2017-09-30T01:17:03.209Z,20.33
2017-09-30T01:19:31.175Z,17.77
2017-09-30T01:21:58.678Z,19.03
2017-09-30T01:24:26.157Z,19.70
2017-09-30T01:26:53.637Z,18.93
2017-09-30T01:29:21.136Z,13.63
2017-09-30T01:31:48.613Z,19.33
2017-09-30T01:34:16.093Z,24.27
2017-09-30T01:36:43.594Z,23.73
2017-09-30T01:39:11.837Z,15.43
2017-09-30T01:41:39.318Z,15.23
2017-09-30T01:44:07.678Z,16.70
2017-09-30T01:46:35.159Z,21.80
2017-09-30T01:49:03.405Z,19.17
2017-09-30T01:51:30.906Z,20.07
2017-09-30T01:53:58.387Z,16.57
2017-09-30T01:56:25.860Z,18.33
2017-09-30T01:58:53.354Z,18.10
2017-09-30T02:01:21.606Z,23.60
2017-09-30T02:03:49.080Z,48.80
2017-09-30T02:06:16.582Z,27.20
2017-09-30T02:08:44.062Z,18.57
2017-09-30T02:11:11.543Z,18.00
2017-09-30T02:13:39.042Z,20.47
2017-09-30T02:16:06.516Z,23.03
2017-09-30T02:18:33.998Z,17.70
2017-09-30T02:21:02.265Z,19.00
2017-09-30T02:23:29.740Z,29.43
2017-09-30T02:25:57.215Z,22.17
2017-09-30T02:28:25.033Z,32.80
2017-09-30T02:30:52.510Z,20.50
2017-09-30T02:33:19.986Z,22.50
2017-09-30T02:35:47.709Z,16.77
2017-09-30T02:38:15.189Z,19.50
2017-09-30T02:40:42.665Z,17.10
2017-09-30T02:43:10.171Z,31.33
2017-09-30T02:45:37.649Z,17.87
2017-09-30T02:48:05.123Z,18.80
2017-09-30T02:50:32.662Z,31.00
2017-09-30T02:53:00.149Z,23.07
2017-09-30T02:55:27.621Z,17.40
2017-09-30T02:57:55.900Z,18.20
2017-09-30T03:00:24.149Z,21.43
2017-09-30T03:02:51.626Z,17.17
2017-09-30T03:05:19.125Z,20.57
2017-09-30T03:07:46.601Z,23.20
2017-09-30T03:10:14.073Z,14.07
2017-09-30T03:12:41.569Z,15.90
2017-09-30T03:15:09.809Z,20.73
2017-09-30T03:17:37.290Z,14.87
2017-09-30T03:20:05.565Z,12.57
2017-09-30T03:22:33.880Z,14.43
2017-09-30T03:25:01.361Z,18.90
2017-09-30T03:27:28.857Z,17.83
2017-09-30T03:29:57.105Z,16.23
2017-09-30T03:32:24.584Z,18.90
2017-09-30T03:34:52.085Z,17.90
2017-09-30T03:37:19.647Z,20.43
2017-09-30T03:39:47.122Z,17.87
2017-09-30T03:42:14.618Z,35.27
2017-09-30T03:44:42.861Z,15.30
2017-09-30T03:47:10.338Z,15.87
2017-09-30T03:49:37.842Z,18.03
2017-09-30T03:52:05.322Z,20.13
2017-09-30T03:54:32.797Z,15.37
2017-09-30T03:57:00.293Z,14.57
2017-09-30T03:59:28.537Z,17.87
2017-09-30T04:01:56.020Z,19.73
2017-09-30T04:04:24.281Z,18.23
2017-09-30T04:06:51.753Z,22.60
2017-09-30T04:09:19.989Z,18.87
2017-09-30T04:11:47.481Z,17.97
2017-09-30T04:14:15.725Z,14.43
2017-09-30T04:16:43.197Z,21.00
2017-09-30T04:19:10.699Z,20.43
2017-09-30T04:21:38.172Z,16.10
2017-09-30T04:24:05.650Z,34.30
2017-09-30T04:26:33.144Z,21.47
2017-09-30T04:29:01.390Z,17.53
2017-09-30T04:31:28.865Z,19.27
2017-09-30T04:33:56.362Z,17.77
2017-09-30T04:36:23.840Z,25.20
2017-09-30T04:38:51.322Z,19.43
2017-09-30T04:41:18.817Z,16.20
2017-09-30T04:43:47.062Z,15.63
2017-09-30T04:46:14.542Z,19.43
2017-09-30T04:48:42.809Z,18.43
2017-09-30T04:51:11.061Z,18.23
2017-09-30T04:53:38.537Z,19.30
2017-09-30T04:56:06.037Z,20.00
2017-09-30T04:58:34.212Z,16.43
2017-09-30T05:01:01.709Z,17.77
2017-09-30T05:03:29.209Z,21.47
2017-09-30T05:05:56.693Z,19.20
2017-09-30T05:08:24.169Z,24.70
2017-09-30T05:10:51.666Z,18.97
2017-09-30T05:13:19.914Z,16.57
2017-09-30T05:15:47.389Z,14.23
2017-09-30T05:18:14.893Z,16.10
2017-09-30T05:20:42.373Z,16.10
2017-09-30T05:23:09.858Z,25.70
2017-09-30T05:25:37.357Z,18.47
2017-09-30T05:28:04.833Z,18.50
2017-09-30T05:30:32.311Z,17.40
2017-09-30T05:32:59.805Z,22.63
2017-09-30T05:35:28.053Z,19.40
2017-09-30T05:37:55.613Z,20.53
2017-09-30T05:40:23.114Z,22.90
2017-09-30T05:42:50.589Z,22.83
2017-09-30T05:45:18.069Z,23.07
2017-09-30T05:47:45.570Z,19.63
2017-09-30T05:50:13.850Z,27.07
2017-09-30T05:52:41.362Z,15.70
2017-09-30T05:55:08.865Z,14.80
2017-09-30T05:57:36.349Z,36.00
2017-09-30T06:00:03.829Z,20.30
2017-09-30T06:02:31.329Z,20.40
2017-09-30T06:04:59.569Z,16.50
2017-09-30T06:07:27.045Z,20.97
2017-09-30T06:09:54.546Z,21.23
2017-09-30T06:12:22.025Z,21.33
2017-09-30T06:14:49.501Z,31.47
2017-09-30T06:17:16.998Z,26.23
2017-09-30T06:19:44.472Z,17.40
2017-09-30T06:22:11.949Z,20.10
2017-09-30T06:24:39.454Z,43.70
2017-09-30T06:27:07.701Z,24.30
2017-09-30T06:29:35.174Z,18.40
2017-09-30T06:32:02.674Z,18.90
2017-09-30T06:34:30.452Z,18.53
2017-09-30T06:36:57.930Z,17.07
2017-09-30T06:39:25.428Z,18.10
2017-09-30T06:41:53.945Z,24.20
2017-09-30T06:44:21.424Z,16.23
2017-09-30T06:46:48.950Z,25.83
2017-09-30T06:49:16.412Z,31.67
2017-09-30T06:51:43.888Z,16.33
2017-09-30T06:54:11.386Z,23.10
2017-09-30T06:56:39.633Z,19.40
2017-09-30T06:59:07.124Z,29.93
2017-09-30T07:01:35.389Z,17.23
2017-09-30T07:04:03.642Z,19.03
2017-09-30T07:06:31.378Z,24.47
2017-09-30T07:08:58.930Z,27.37
2017-09-30T07:11:26.421Z,15.37
2017-09-30T07:13:53.897Z,20.37
2017-09-30T07:16:21.721Z,15.70
2017-09-30T07:18:49.197Z,24.30
2017-09-30T07:21:16.674Z,21.90
2017-09-30T07:26:18.246Z,17.23
2017-09-30T07:28:45.746Z,21.60
2017-09-30T07:31:13.226Z,23.73
2017-09-30T07:33:40.709Z,17.63
2017-09-30T07:36:08.537Z,18.43
2017-09-30T07:38:36.014Z,19.17
2017-09-30T07:41:04.265Z,22.90
2017-09-30T07:43:31.760Z,13.57
2017-09-30T07:45:59.241Z,18.00
2017-09-30T07:48:27.497Z,17.40
2017-09-30T07:50:55.005Z,21.63
2017-09-30T07:53:22.487Z,13.37
2017-09-30T07:55:49.965Z,18.17
2017-09-30T07:58:17.469Z,22.63
2017-09-30T08:00:44.959Z,12.40
2017-09-30T08:03:12.460Z,12.10
2017-09-30T08:05:40.728Z,32.13
2017-09-30T08:08:08.216Z,13.37
2017-09-30T08:10:35.701Z,12.40
2017-09-30T08:13:04.330Z,10.83
2017-09-30T08:15:32.569Z,13.10
2017-09-30T08:18:00.316Z,20.13
2017-09-30T08:20:27.813Z,11.30
2017-09-30T08:22:55.298Z,11.10
2017-09-30T08:25:23.540Z,14.53
2017-09-30T08:27:51.779Z,18.67
2017-09-30T08:30:19.284Z,12.90
2017-09-30T08:32:46.773Z,17.47
2017-09-30T08:35:14.281Z,12.53
2017-09-30T08:37:41.757Z,11.13
2017-09-30T08:40:09.804Z,11.73
2017-09-30T08:42:37.322Z,11.60
2017-09-30T08:45:04.806Z,14.03
2017-09-30T08:47:32.286Z,9.90
2017-09-30T08:49:59.789Z,12.47
2017-09-30T08:52:27.325Z,10.30
2017-09-30T08:54:55.569Z,11.57
2017-09-30T08:57:23.065Z,13.20
2017-09-30T08:59:51.305Z,13.67
2017-09-30T09:02:18.783Z,10.30
2017-09-30T09:04:46.279Z,13.43
2017-09-30T09:07:13.753Z,14.07
2017-09-30T09:09:41.236Z,10.60
2017-09-30T09:12:08.729Z,10.70
2017-09-30T09:14:36.969Z,10.17
2017-09-30T09:17:04.445Z,10.87
2017-09-30T09:19:32.046Z,9.20
2017-09-30T09:21:59.513Z,9.00
2017-09-30T09:24:26.989Z,8.83
2017-09-30T09:26:54.489Z,10.20
2017-09-30T09:29:23.005Z,10.03
2017-09-30T09:31:50.481Z,9.30
2017-09-30T09:34:17.973Z,10.40
2017-09-30T09:36:46.208Z,8.87
2017-09-30T09:39:13.676Z,6.83
2017-09-30T09:41:41.174Z,8.70
2017-09-30T09:44:09.689Z,7.87
2017-09-30T09:46:37.164Z,6.97
2017-09-30T09:49:04.654Z,8.47
2017-09-30T09:51:32.121Z,8.10
2017-09-30T09:54:00.363Z,15.13
2017-09-30T09:56:27.865Z,7.33
2017-09-30T09:58:56.105Z,7.03
2017-09-30T10:01:23.576Z,6.93
2017-09-30T10:03:51.836Z,12.83
2017-09-30T10:06:20.813Z,8.00
2017-09-30T10:08:48.506Z,7.70
2017-09-30T10:11:16.766Z,6.13
2017-09-30T10:13:44.237Z,6.33
2017-09-30T10:16:12.477Z,6.07
2017-09-30T10:18:39.969Z,6.40
2017-09-30T10:21:08.208Z,6.00
2017-09-30T10:23:35.680Z,7.17
2017-09-30T10:26:03.174Z,5.83
2017-09-30T10:28:31.410Z,6.60
2017-09-30T10:30:58.885Z,5.23
2017-09-30T10:33:26.381Z,6.17
2017-09-30T10:35:53.854Z,6.73
2017-09-30T10:38:21.329Z,6.10
2017-09-30T10:40:48.825Z,6.47
2017-09-30T10:43:17.061Z,5.90
2017-09-30T10:45:44.529Z,6.33
2017-09-30T10:48:12.025Z,5.63
2017-09-30T10:50:40.260Z,5.10
2017-09-30T10:53:07.728Z,5.40
2017-09-30T10:55:35.222Z,8.00
2017-09-30T10:58:02.694Z,4.40
2017-09-30T11:00:30.168Z,6.60
2017-09-30T11:02:57.657Z,5.93
2017-09-30T11:05:25.896Z,13.90
2017-09-30T11:07:53.365Z,4.50
2017-09-30T11:10:20.872Z,14.17
2017-09-30T11:12:49.114Z,10.13
2017-09-30T11:15:17.362Z,9.30
2017-09-30T11:17:44.910Z,4.90
2017-09-30T11:20:12.381Z,5.10
2017-09-30T11:22:39.852Z,5.60
2017-09-30T11:25:07.345Z,5.30
2017-09-30T11:27:35.582Z,10.13
2017-09-30T11:30:03.057Z,10.13
2017-09-30T11:32:32.056Z,6.20
2017-09-30T11:34:59.528Z,6.50
2017-09-30T11:37:27.819Z,4.80
2017-09-30T11:39:55.320Z,4.80
2017-09-30T11:42:22.799Z,7.00
2017-09-30T11:44:50.265Z,4.20
2017-09-30T11:47:18.521Z,3.90
2017-09-30T11:49:45.998Z,4.27
2017-09-30T11:52:13.469Z,3.73
2017-09-30T11:54:41.726Z,4.63
2017-09-30T11:57:09.197Z,12.73
2017-09-30T11:59:37.718Z,4.07
2017-09-30T12:02:05.209Z,4.10
2017-09-30T12:04:34.264Z,5.93
2017-09-30T12:07:01.781Z,3.90
2017-09-30T12:09:29.278Z,13.73
2017-09-30T12:11:56.749Z,3.70
2017-09-30T12:14:24.220Z,4.83
2017-09-30T12:16:51.714Z,4.97
2017-09-30T12:19:20.169Z,4.03
2017-09-30T12:21:47.641Z,4.40
2017-09-30T12:24:15.133Z,4.90
2017-09-30T12:26:42.651Z,6.73
2017-09-30T12:29:11.637Z,4.87
2017-09-30T12:31:40.646Z,4.23
2017-09-30T12:34:08.117Z,4.17
2017-09-30T12:36:36.539Z,9.00
2017-09-30T12:39:04.048Z,4.73
2017-09-30T12:41:32.285Z,12.20
2017-09-30T12:44:00.565Z,5.73
2017-09-30T12:46:28.065Z,7.13
2017-09-30T12:48:56.673Z,4.93
2017-09-30T12:51:24.146Z,9.23
2017-09-30T12:53:51.689Z,4.07
2017-09-30T12:56:19.165Z,4.57
2017-09-30T12:58:46.637Z,5.30
2017-09-30T13:01:14.129Z,5.13
2017-09-30T13:03:42.365Z,4.13
2017-09-30T13:06:09.870Z,5.97
2017-09-30T13:08:37.411Z,4.83
2017-09-30T13:11:05.678Z,4.10
2017-09-30T13:13:33.150Z,6.90
2017-09-30T13:16:01.461Z,5.53
2017-09-30T13:18:28.966Z,4.80
2017-09-30T13:20:56.477Z,5.40
2017-09-30T13:23:24.010Z,5.23
2017-09-30T13:25:51.485Z,4.93
2017-09-30T13:28:18.957Z,5.53
2017-09-30T13:30:46.721Z,5.20
2017-09-30T13:33:14.196Z,4.90
2017-09-30T13:35:41.665Z,5.20
2017-09-30T13:38:09.157Z,4.00
2017-09-30T13:40:37.402Z,9.60
2017-09-30T13:43:04.911Z,5.97
2017-09-30T13:45:32.473Z,17.03
2017-09-30T13:47:59.948Z,7.30
2017-09-30T13:50:27.418Z,8.50
2017-09-30T13:52:55.021Z,10.20
2017-09-30T13:55:22.514Z,11.83
2017-09-30T13:57:50.056Z,8.70
2017-09-30T14:00:17.581Z,8.30
2017-09-30T14:02:45.081Z,9.80
2017-09-30T14:05:12.556Z,8.90
2017-09-30T14:07:40.048Z,10.30
2017-09-30T14:10:07.529Z,10.07
2017-09-30T14:12:35.015Z,8.57
2017-09-30T14:15:02.609Z,8.57
2017-09-30T14:17:30.061Z,9.50
2017-09-30T14:19:57.533Z,9.30
2017-09-30T14:22:25.042Z,14.93
2017-09-30T14:24:52.588Z,11.37
2017-09-30T14:27:20.085Z,11.43
2017-09-30T14:29:47.585Z,11.03
2017-09-30T14:32:15.833Z,11.37
2017-09-30T14:34:43.309Z,8.87
2017-09-30T14:37:11.569Z,12.20
2017-09-30T14:39:39.045Z,12.03
2017-09-30T14:42:07.283Z,15.23
2017-09-30T14:44:34.781Z,15.03
2017-09-30T14:47:03.021Z,16.53
2017-09-30T14:49:30.489Z,9.87
2017-09-30T14:51:58.205Z,13.00
2017-09-30T14:54:25.677Z,14.30
2017-09-30T14:56:53.154Z,10.03
2017-09-30T14:59:21.298Z,10.27
2017-09-30T15:01:48.905Z,9.73
2017-09-30T15:04:16.386Z,15.03
2017-09-30T15:06:43.912Z,9.77
2017-09-30T15:09:11.398Z,10.90
2017-09-30T15:11:38.877Z,15.23
2017-09-30T15:14:06.374Z,13.93
2017-09-30T15:16:33.861Z,14.30
2017-09-30T15:19:02.110Z,13.70
2017-09-30T15:21:29.685Z,10.97
2017-09-30T15:23:57.464Z,11.07
2017-09-30T15:26:25.769Z,10.17
2017-09-30T15:28:53.261Z,10.67
2017-09-30T15:31:20.732Z,9.20
2017-09-30T15:33:48.213Z,21.43
2017-09-30T15:36:16.476Z,8.10
2017-09-30T15:38:44.740Z,10.37
2017-09-30T15:41:12.213Z,8.97
2017-09-30T15:43:40.473Z,8.10
2017-09-30T15:46:07.945Z,8.23
2017-09-30T15:48:36.465Z,9.17
2017-09-30T15:51:03.994Z,9.30
2017-09-30T15:53:32.266Z,7.87
2017-09-30T15:56:00.539Z,8.23
2017-09-30T15:58:28.838Z,7.87
2017-09-30T16:00:56.409Z,9.37
2017-09-30T16:03:23.935Z,8.00
2017-09-30T16:05:52.197Z,7.97
2017-09-30T16:08:19.667Z,9.23
2017-09-30T16:10:47.921Z,8.03
2017-09-30T16:13:15.616Z,8.57
2017-09-30T16:15:43.122Z,8.00
2017-09-30T16:18:10.628Z,8.30
2017-09-30T16:20:38.145Z,12.57
2017-09-30T16:23:05.669Z,8.40
2017-09-30T16:25:33.181Z,10.17
2017-09-30T16:28:01.484Z,10.63
2017-09-30T16:30:28.998Z,6.60
2017-09-30T16:32:56.473Z,6.60
2017-09-30T16:35:24.001Z,5.13
2017-09-30T16:37:51.507Z,4.50
2017-09-30T16:40:18.986Z,14.90
2017-09-30T16:42:46.555Z,4.40
2017-09-30T16:45:14.071Z,4.00
2017-09-30T16:47:42.342Z,4.43
2017-09-30T16:50:10.644Z,5.50
2017-09-30T16:52:38.155Z,5.83
2017-09-30T16:55:05.666Z,6.67
2017-09-30T16:57:33.202Z,4.30
2017-09-30T17:00:01.726Z,4.73
2017-09-30T17:02:29.201Z,4.97
2017-09-30T17:04:56.697Z,7.30
2017-09-30T17:07:24.936Z,19.40
2017-09-30T17:09:52.410Z,4.03
2017-09-30T17:12:19.901Z,9.10
2017-09-30T17:14:47.373Z,6.43
2017-09-30T17:17:15.141Z,5.17
2017-09-30T17:19:42.638Z,10.13
2017-09-30T17:22:10.110Z,3.20
2017-09-30T17:24:38.349Z,2.70
2017-09-30T17:27:05.842Z,3.60
2017-09-30T17:29:33.313Z,3.80
2017-09-30T17:32:01.545Z,4.67
2017-09-30T17:34:29.033Z,2.53
2017-09-30T17:36:57.277Z,6.80
2017-09-30T17:39:24.744Z,3.43
2017-09-30T17:41:52.233Z,7.80
2017-09-30T17:44:20.545Z,4.00
2017-09-30T17:46:48.052Z,3.93
2017-09-30T17:49:16.309Z,4.33
2017-09-30T17:51:43.783Z,3.40
2017-09-30T17:54:11.257Z,7.10
2017-09-30T17:56:39.512Z,4.90
2017-09-30T17:59:06.981Z,5.73
2017-09-30T18:01:35.246Z,3.27
2017-09-30T18:04:02.803Z,4.40
2017-09-30T18:06:31.059Z,4.67
2017-09-30T18:08:58.586Z,2.93
2017-09-30T18:11:26.093Z,4.87
2017-09-30T18:13:53.570Z,3.93
2017-09-30T18:16:21.808Z,3.20
2017-09-30T18:18:49.302Z,4.10
2017-09-30T18:21:17.541Z,6.63
2017-09-30T18:23:45.021Z,3.13
2017-09-30T18:26:12.513Z,8.63
2017-09-30T18:28:39.990Z,3.57
2017-09-30T18:31:07.651Z,2.43
2017-09-30T18:33:35.141Z,2.60
2017-09-30T18:36:02.621Z,2.73
2017-09-30T18:38:30.864Z,2.67
2017-09-30T18:40:58.361Z,2.60
2017-09-30T18:43:26.597Z,6.63
2017-09-30T18:45:54.130Z,2.97
2017-09-30T18:48:22.659Z,2.90
2017-09-30T18:50:50.917Z,3.50
2017-09-30T18:53:18.389Z,2.60
2017-09-30T18:55:46.656Z,3.13
2017-09-30T18:58:15.742Z,5.03
2017-09-30T19:00:43.221Z,6.67
2017-09-30T19:03:11.749Z,7.57
2017-09-30T19:05:39.221Z,6.23
2017-09-30T19:08:06.694Z,5.97
2017-09-30T19:10:34.973Z,5.57
2017-09-30T19:13:02.440Z,6.33
2017-09-30T19:15:30.685Z,5.87
2017-09-30T19:17:58.392Z,5.00
2017-09-30T19:20:26.677Z,6.27
2017-09-30T19:22:54.916Z,5.10
2017-09-30T19:25:22.751Z,6.37
2017-09-30T19:27:50.220Z,6.00
2017-09-30T19:30:17.694Z,6.70
2017-09-30T19:32:46.855Z,6.03
2017-09-30T19:35:14.365Z,6.80
2017-09-30T19:37:41.841Z,10.20
2017-09-30T19:40:10.101Z,6.80
2017-09-30T19:42:37.572Z,9.30
2017-09-30T19:45:05.817Z,7.10
2017-09-30T19:47:33.344Z,6.43
2017-09-30T19:50:00.856Z,6.60
2017-09-30T19:52:29.331Z,6.03
2017-09-30T19:54:56.946Z,6.43
2017-09-30T19:57:25.562Z,5.90
2017-09-30T19:59:54.020Z,6.17
2017-09-30T20:02:22.697Z,5.83
2017-09-30T20:04:50.243Z,8.00
2017-09-30T20:07:17.762Z,5.30
2017-09-30T20:09:46.111Z,6.57
2017-09-30T20:12:13.601Z,5.40
2017-09-30T20:14:41.841Z,10.40
2017-09-30T20:17:10.101Z,6.03
2017-09-30T20:19:37.626Z,4.70
2017-09-30T20:22:05.164Z,5.93
2017-09-30T20:24:33.524Z,5.90
2017-09-30T20:27:01.238Z,6.80
2017-09-30T20:29:28.708Z,5.17
2017-09-30T20:31:56.205Z,5.40
2017-09-30T20:34:23.682Z,10.30
2017-09-30T20:36:51.929Z,5.83
2017-09-30T20:39:20.934Z,10.63
2017-09-30T20:41:48.402Z,8.23
2017-09-30T20:44:16.638Z,5.20
2017-09-30T20:46:44.129Z,6.13
2017-09-30T20:49:12.382Z,5.93
2017-09-30T20:51:39.859Z,5.87
2017-09-30T20:54:08.122Z,6.10
2017-09-30T20:56:36.356Z,6.60
2017-09-30T20:59:03.834Z,6.70
2017-09-30T21:01:31.325Z,5.60
2017-09-30T21:03:59.573Z,7.77
2017-09-30T21:06:27.089Z,9.87
2017-09-30T21:08:54.581Z,7.40
2017-09-30T21:11:22.054Z,12.20
2017-09-30T21:13:49.529Z,9.40
2017-09-30T21:16:17.785Z,8.60
2017-09-30T21:18:45.261Z,15.10
2017-09-30T21:21:13.501Z,7.97
2017-09-30T21:23:40.996Z,6.90
2017-09-30T21:26:09.979Z,8.50
2017-09-30T21:28:37.453Z,10.07
2017-09-30T21:31:05.709Z,7.50
2017-09-30T21:33:33.185Z,14.33
2017-09-30T21:36:01.433Z,11.17
2017-09-30T21:38:29.692Z,10.90
2017-09-30T21:40:57.165Z,8.27
2017-09-30T21:43:24.640Z,12.27
2017-09-30T21:45:52.905Z,10.70
2017-09-30T21:48:20.377Z,15.30
2017-09-30T21:50:48.625Z,12.20
2017-09-30T21:53:17.907Z,10.37
2017-09-30T21:55:45.656Z,11.30
2017-09-30T21:58:13.129Z,10.80
2017-09-30T22:00:40.625Z,16.47
2017-09-30T22:03:08.885Z,10.43
2017-09-30T22:05:36.370Z,12.37
2017-09-30T22:08:04.645Z,22.57
2017-09-30T22:10:32.884Z,14.07
2017-09-30T22:13:00.361Z,13.77
2017-09-30T22:15:27.861Z,14.00
2017-09-30T22:17:55.341Z,12.40
2017-09-30T22:20:22.820Z,14.00
2017-09-30T22:22:50.316Z,21.33
2017-09-30T22:25:17.799Z,17.83
2017-09-30T22:27:45.281Z,22.43
2017-09-30T22:30:12.788Z,18.10
2017-09-30T22:32:40.293Z,19.90
2017-09-30T22:35:07.769Z,25.17
2017-09-30T22:37:36.768Z,23.60
2017-09-30T22:40:05.017Z,24.30
2017-09-30T22:42:32.501Z,27.70
2017-09-30T22:45:00.776Z,34.33
2017-09-30T22:47:28.256Z,21.33
2017-09-30T22:49:56.498Z,20.50
2017-09-30T22:52:24.001Z,20.50
2017-09-30T22:54:51.485Z,27.37
2017-09-30T22:57:18.965Z,22.70
2017-09-30T22:59:47.513Z,18.67
2017-09-30T23:02:14.991Z,14.47
2017-09-30T23:04:42.465Z,18.43
2017-09-30T23:07:11.474Z,18.40
2017-09-30T23:09:39.721Z,20.03
2017-09-30T23:12:07.192Z,11.17
2017-09-30T23:14:34.698Z,16.10
2017-09-30T23:17:02.177Z,13.77
2017-09-30T23:19:29.654Z,21.43
2017-09-30T23:21:57.165Z,16.40
2017-09-30T23:24:24.645Z,20.20
2017-09-30T23:26:52.134Z,15.40
2017-09-30T23:29:19.631Z,13.00
2017-09-30T23:31:47.206Z,27.93
2017-09-30T23:34:14.697Z,14.60
2017-09-30T23:36:42.196Z,11.70
2017-09-30T23:39:10.436Z,12.40
2017-09-30T23:41:37.913Z,18.70
2017-09-30T23:44:06.172Z,15.40
2017-09-30T23:46:33.648Z,14.60
2017-09-30T23:49:01.894Z,16.20
2017-09-30T23:51:29.389Z,19.33
2017-09-30T23:53:57.638Z,27.27
2017-09-30T23:56:25.113Z,17.90
2017-09-30T23:58:53.605Z,16.77
